createdAt,value
2022-12-08T00:01:29.027Z,-14.52
2022-12-08T00:03:56.385Z,-14.17
2022-12-08T00:06:44.800Z,-14.42
2022-12-08T00:09:24.938Z,-14.15
2022-12-08T00:12:03.450Z,-14.20
2022-12-08T00:14:33.545Z,-14.08
2022-12-08T00:17:00.820Z,-14.36
2022-12-08T00:19:27.450Z,-14.41
2022-12-08T00:21:54.206Z,-14.60
2022-12-08T00:24:20.942Z,-14.95
2022-12-08T00:26:47.750Z,-14.83
2022-12-08T00:29:17.348Z,-14.74
2022-12-08T00:31:44.205Z,-15.08
2022-12-08T00:34:11.830Z,-15.23
2022-12-08T00:36:39.089Z,-15.37
2022-12-08T00:39:05.628Z,-15.35
2022-12-08T00:41:51.066Z,-15.32
2022-12-08T00:44:20.875Z,-15.05
2022-12-08T00:46:48.157Z,-14.98
2022-12-08T00:49:14.974Z,-14.98
2022-12-08T00:51:41.506Z,-14.77
2022-12-08T00:54:08.505Z,-14.56
2022-12-08T00:56:35.119Z,-14.28
2022-12-08T00:59:01.648Z,-14.13
2022-12-08T01:01:31.432Z,-14.09
2022-12-08T01:03:58.035Z,-13.93
2022-12-08T01:06:24.508Z,-13.86
2022-12-08T01:08:51.161Z,-13.65
2022-12-08T01:11:18.759Z,-13.17
2022-12-08T01:13:45.874Z,-12.99
2022-12-08T01:16:19.494Z,-12.86
2022-12-08T01:18:48.221Z,-12.79
2022-12-08T01:21:14.629Z,-12.76
2022-12-08T01:23:41.206Z,-12.77
2022-12-08T01:26:09.026Z,-12.79
2022-12-08T01:28:35.482Z,-12.73
2022-12-08T01:31:02.285Z,-13.48
2022-12-08T01:33:28.893Z,-14.17
2022-12-08T01:35:55.918Z,-14.50
2022-12-08T01:38:22.757Z,-14.80
2022-12-08T01:40:49.645Z,-14.97
2022-12-08T01:43:19.589Z,-15.14
2022-12-08T01:45:46.756Z,-15.26
2022-12-08T01:48:24.336Z,-15.17
2022-12-08T01:50:51.684Z,-14.83
2022-12-08T01:53:20.424Z,-14.08
2022-12-08T01:55:53.027Z,-13.64
2022-12-08T01:58:26.662Z,-13.51
2022-12-08T02:00:54.265Z,-14.09
2022-12-08T02:03:34.155Z,-14.54
2022-12-08T02:06:03.580Z,-14.90
2022-12-08T02:08:32.729Z,-15.02
2022-12-08T02:10:59.157Z,-15.18
2022-12-08T02:13:25.765Z,-15.32
2022-12-08T02:16:15.668Z,-15.20
2022-12-08T02:19:14.745Z,-15.22
2022-12-08T02:21:37.801Z,-15.37
2022-12-08T02:24:07.492Z,-15.26
2022-12-08T02:27:04.859Z,-15.08
2022-12-08T02:29:31.254Z,-15.08
2022-12-08T02:32:23.925Z,-14.48
2022-12-08T02:34:50.409Z,-14.34
2022-12-08T02:37:19.915Z,-14.81
2022-12-08T02:39:53.943Z,-15.08
2022-12-08T02:42:33.499Z,-14.88
2022-12-08T02:45:14.761Z,-15.17
2022-12-08T02:47:42.982Z,-15.46
2022-12-08T02:50:09.690Z,-15.29
2022-12-08T02:52:43.728Z,-15.35
2022-12-08T02:55:25.935Z,-15.47
2022-12-08T02:58:10.619Z,-15.33
2022-12-08T03:00:53.549Z,-15.30
2022-12-08T03:03:35.875Z,-15.13
2022-12-08T03:06:04.154Z,-15.42
2022-12-08T03:08:40.510Z,-15.45
2022-12-08T03:11:09.066Z,-15.56
2022-12-08T03:13:46.571Z,-15.63
2022-12-08T03:16:17.812Z,-15.65
2022-12-08T03:18:47.561Z,-15.46
2022-12-08T03:21:17.942Z,-15.19
2022-12-08T03:23:46.659Z,-14.58
2022-12-08T03:26:22.712Z,-14.19
2022-12-08T03:28:49.131Z,-14.35
2022-12-08T03:31:16.925Z,-14.57
2022-12-08T03:33:45.723Z,-14.87
2022-12-08T03:36:13.698Z,-15.16
2022-12-08T03:38:41.233Z,-15.32
2022-12-08T03:41:19.598Z,-15.43
2022-12-08T03:43:50.428Z,-15.47
2022-12-08T03:46:17.415Z,-15.55
2022-12-08T03:48:44.377Z,-15.51
2022-12-08T03:51:11.016Z,-15.32
2022-12-08T03:53:37.812Z,-14.93
2022-12-08T03:56:05.552Z,-14.61
2022-12-08T03:58:37.262Z,-14.99
2022-12-08T04:01:04.887Z,-15.12
2022-12-08T04:03:31.283Z,-15.04
2022-12-08T04:05:57.758Z,-14.79
2022-12-08T04:08:24.224Z,-14.64
2022-12-08T04:10:50.705Z,-14.71
2022-12-08T04:13:17.221Z,-14.98
2022-12-08T04:15:49.460Z,-15.07
2022-12-08T04:18:15.940Z,-15.19
2022-12-08T04:20:43.665Z,-15.25
2022-12-08T04:23:12.213Z,-15.30
2022-12-08T04:25:39.194Z,-15.12
2022-12-08T04:28:06.034Z,-14.77
2022-12-08T04:30:32.818Z,-14.40
2022-12-08T04:32:59.316Z,-14.53
2022-12-08T04:35:25.907Z,-14.68
2022-12-08T04:37:52.371Z,-14.19
2022-12-08T04:40:18.839Z,-13.97
2022-12-08T04:42:45.729Z,-14.09
2022-12-08T04:45:12.159Z,-14.05
2022-12-08T04:47:40.799Z,-14.21
2022-12-08T04:50:08.467Z,-14.32
2022-12-08T04:52:34.935Z,-14.47
2022-12-08T04:55:01.468Z,-14.47
2022-12-08T04:57:27.906Z,-14.69
2022-12-08T04:59:55.074Z,-14.85
2022-12-08T05:02:22.415Z,-14.88
2022-12-08T05:04:48.916Z,-14.65
2022-12-08T05:07:15.418Z,-14.40
2022-12-08T05:09:41.921Z,-14.28
2022-12-08T05:12:08.458Z,-14.49
2022-12-08T05:14:36.791Z,-14.63
2022-12-08T05:17:09.137Z,-14.77
2022-12-08T05:19:38.160Z,-14.49
2022-12-08T05:22:04.580Z,-14.10
2022-12-08T05:24:30.998Z,-14.26
2022-12-08T05:26:57.491Z,-14.46
2022-12-08T05:29:23.989Z,-14.24
2022-12-08T05:31:50.486Z,-14.19
2022-12-08T05:34:17.201Z,-14.18
2022-12-08T05:36:43.653Z,-14.09
2022-12-08T05:39:14.295Z,-13.79
2022-12-08T05:41:41.803Z,-14.26
2022-12-08T05:44:08.247Z,-14.27
2022-12-08T05:46:36.124Z,-13.78
2022-12-08T05:49:03.253Z,-13.41
2022-12-08T05:51:29.701Z,-13.58
2022-12-08T05:53:56.257Z,-14.15
2022-12-08T05:56:22.959Z,-14.01
2022-12-08T05:58:49.480Z,-14.17
2022-12-08T06:01:21.206Z,-14.57
2022-12-08T06:03:48.355Z,-14.29
2022-12-08T06:06:14.767Z,-14.90
2022-12-08T06:08:41.194Z,-15.18
2022-12-08T06:11:07.679Z,-14.58
2022-12-08T06:13:36.150Z,-14.07
2022-12-08T06:16:07.904Z,-13.68
2022-12-08T06:18:36.451Z,-13.84
2022-12-08T06:21:06.804Z,-13.38
2022-12-08T06:23:33.241Z,-13.10
2022-12-08T06:26:07.932Z,-13.70
2022-12-08T06:28:35.309Z,-14.34
2022-12-08T06:31:07.268Z,-14.74
2022-12-08T06:33:35.839Z,-14.96
2022-12-08T06:36:02.255Z,-15.15
2022-12-08T06:38:30.782Z,-15.01
2022-12-08T06:40:57.901Z,-14.85
2022-12-08T06:43:27.215Z,-14.84
2022-12-08T06:45:53.850Z,-15.19
2022-12-08T06:48:20.406Z,-15.34
2022-12-08T06:50:46.798Z,-15.41
2022-12-08T06:53:13.667Z,-15.18
2022-12-08T06:55:58.910Z,-14.83
2022-12-08T06:58:26.239Z,-15.25
2022-12-08T07:00:53.760Z,-15.48
2022-12-08T07:03:20.683Z,-15.50
2022-12-08T07:05:47.370Z,-15.44
2022-12-08T07:08:14.151Z,-15.59
2022-12-08T07:10:40.712Z,-15.49
2022-12-08T07:13:07.175Z,-14.86
2022-12-08T07:15:35.893Z,-14.64
2022-12-08T07:18:04.274Z,-14.91
2022-12-08T07:20:30.803Z,-15.20
2022-12-08T07:22:57.278Z,-15.39
2022-12-08T07:25:23.839Z,-15.54
2022-12-08T07:27:51.726Z,-15.63
2022-12-08T07:30:18.354Z,-15.68
2022-12-08T07:32:45.201Z,-15.72
2022-12-08T07:35:12.179Z,-15.73
2022-12-08T07:37:38.862Z,-15.68
2022-12-08T07:40:06.622Z,-15.70
2022-12-08T07:42:33.292Z,-15.59
2022-12-08T07:45:00.686Z,-15.55
2022-12-08T07:47:27.154Z,-15.34
2022-12-08T07:49:53.642Z,-14.84
2022-12-08T07:52:20.146Z,-14.29
2022-12-08T07:54:47.134Z,-14.38
2022-12-08T07:57:13.901Z,-14.43
2022-12-08T07:59:40.967Z,-14.29
2022-12-08T08:02:24.285Z,-14.14
2022-12-08T08:04:51.674Z,-14.03
2022-12-08T08:07:18.357Z,-13.93
2022-12-08T08:09:45.776Z,-13.81
2022-12-08T08:12:30.832Z,-13.68
2022-12-08T08:15:01.146Z,-13.54
2022-12-08T08:17:28.579Z,-13.48
2022-12-08T08:19:55.235Z,-13.50
2022-12-08T08:22:21.673Z,-13.51
2022-12-08T08:24:48.059Z,-13.45
2022-12-08T08:27:14.491Z,-13.37
2022-12-08T08:29:40.920Z,-13.37
2022-12-08T08:32:07.315Z,-13.41
2022-12-08T08:34:33.798Z,-13.24
2022-12-08T08:37:00.676Z,-13.08
2022-12-08T08:39:27.270Z,-12.95
2022-12-08T08:41:53.680Z,-12.83
2022-12-08T08:44:20.151Z,-12.77
2022-12-08T08:46:46.935Z,-12.70
2022-12-08T08:49:13.410Z,-12.60
2022-12-08T08:51:39.932Z,-12.44
2022-12-08T08:54:06.495Z,-12.20
2022-12-08T08:56:32.989Z,-12.12
2022-12-08T08:58:59.410Z,-12.04
2022-12-08T09:01:27.697Z,-12.03
2022-12-08T09:03:55.559Z,-11.98
2022-12-08T09:06:22.953Z,-11.86
2022-12-08T09:08:49.526Z,-11.57
2022-12-08T09:11:18.460Z,-11.42
2022-12-08T09:13:47.170Z,-11.42
2022-12-08T09:16:13.671Z,-11.37
2022-12-08T09:18:40.238Z,-11.33
2022-12-08T09:21:08.373Z,-11.13
2022-12-08T09:23:35.881Z,-10.87
2022-12-08T09:26:03.311Z,-10.63
2022-12-08T09:28:29.753Z,-10.52
2022-12-08T09:30:56.177Z,-10.57
2022-12-08T09:33:22.815Z,-10.53
2022-12-08T09:35:49.282Z,-10.48
2022-12-08T09:38:15.823Z,-10.45
2022-12-08T09:40:52.430Z,-10.39
2022-12-08T09:43:21.807Z,-10.26
2022-12-08T09:45:48.561Z,-10.18
2022-12-08T09:48:17.678Z,-10.07
2022-12-08T09:50:48.112Z,-10.05
2022-12-08T09:53:17.986Z,-9.98
2022-12-08T09:55:47.591Z,-9.98
2022-12-08T09:58:33.018Z,-10.06
2022-12-08T10:01:00.474Z,-10.13
2022-12-08T10:03:28.187Z,-10.19
2022-12-08T10:06:04.961Z,-10.24
2022-12-08T10:08:38.178Z,-10.26
2022-12-08T10:11:11.015Z,-10.19
2022-12-08T10:13:58.496Z,-10.08
2022-12-08T10:16:32.462Z,-10.11
2022-12-08T10:19:08.131Z,-10.10
2022-12-08T10:21:34.595Z,-10.11
2022-12-08T10:24:06.010Z,-10.09
2022-12-08T10:26:32.999Z,-10.11
2022-12-08T10:29:02.943Z,-10.14
2022-12-08T10:31:30.512Z,-10.15
2022-12-08T10:34:01.450Z,-10.05
2022-12-08T10:36:48.182Z,-9.97
2022-12-08T10:39:26.795Z,-9.93
2022-12-08T10:41:53.245Z,-9.77
2022-12-08T10:44:20.004Z,-9.93
2022-12-08T10:46:46.899Z,-10.33
2022-12-08T10:49:15.105Z,-10.42
2022-12-08T10:51:42.534Z,-10.52
2022-12-08T10:54:29.217Z,-10.27
2022-12-08T10:56:56.807Z,-10.31
2022-12-08T10:59:27.771Z,-10.40
2022-12-08T11:01:55.248Z,-10.24
2022-12-08T11:04:23.719Z,-10.19
2022-12-08T11:06:51.516Z,-10.18
2022-12-08T11:09:17.872Z,-10.26
2022-12-08T11:11:54.822Z,-10.06
2022-12-08T11:14:32.022Z,-9.98
2022-12-08T11:17:08.833Z,-9.95
2022-12-08T11:19:40.913Z,-9.86
2022-12-08T11:22:24.836Z,-9.78
2022-12-08T11:25:11.619Z,-9.94
2022-12-08T11:27:45.714Z,-9.91
2022-12-08T11:30:21.545Z,-10.02
2022-12-08T11:33:08.343Z,-10.11
2022-12-08T11:35:37.269Z,-10.13
2022-12-08T11:38:24.292Z,-10.05
2022-12-08T11:40:53.901Z,-10.05
2022-12-08T11:43:23.344Z,-9.97
2022-12-08T11:45:55.047Z,-9.84
2022-12-08T11:48:27.320Z,-9.70
2022-12-08T11:51:02.565Z,-9.86
2022-12-08T11:53:31.925Z,-9.79
2022-12-08T11:56:00.783Z,-9.70
2022-12-08T11:58:39.657Z,-9.61
2022-12-08T12:01:14.177Z,-9.58
2022-12-08T12:03:44.735Z,-9.69
2022-12-08T12:06:38.072Z,-9.78
2022-12-08T12:09:31.374Z,-9.57
2022-12-08T12:12:17.234Z,-9.32
2022-12-08T12:14:46.453Z,-9.09
2022-12-08T12:17:21.871Z,-8.90
2022-12-08T12:19:49.106Z,-8.85
2022-12-08T12:22:17.912Z,-8.72
2022-12-08T12:24:45.726Z,-8.59
2022-12-08T12:27:15.346Z,-8.46
2022-12-08T12:29:55.422Z,-8.43
2022-12-08T12:32:23.265Z,-8.28
2022-12-08T12:34:49.640Z,-8.32
2022-12-08T12:37:21.589Z,-8.28
2022-12-08T12:39:50.749Z,-8.22
2022-12-08T12:42:35.559Z,-8.16
2022-12-08T12:45:14.160Z,-8.10
2022-12-08T12:47:48.629Z,-8.19
2022-12-08T12:50:34.281Z,-8.24
2022-12-08T12:53:10.663Z,-8.20
2022-12-08T12:55:45.985Z,-8.30
2022-12-08T12:58:27.775Z,-8.39
2022-12-08T13:01:13.765Z,-8.46
2022-12-08T13:03:48.496Z,-8.57
2022-12-08T13:06:15.893Z,-8.48
2022-12-08T13:08:50.961Z,-8.38
2022-12-08T13:11:17.528Z,-8.26
2022-12-08T13:13:57.543Z,-8.29
2022-12-08T13:16:31.132Z,-8.25
2022-12-08T13:18:58.732Z,-8.27
2022-12-08T13:21:31.733Z,-8.29
2022-12-08T13:24:10.231Z,-8.34
2022-12-08T13:26:46.781Z,-8.50
2022-12-08T13:29:15.451Z,-8.68
2022-12-08T13:31:48.303Z,-8.83
2022-12-08T13:34:17.762Z,-8.93
2022-12-08T13:36:56.555Z,-8.84
2022-12-08T13:39:32.379Z,-8.74
2022-12-08T13:42:02.286Z,-8.85
2022-12-08T13:47:33.980Z,-9.13
2022-12-08T13:58:35.362Z,-9.14
2022-12-08T14:01:08.288Z,-9.08
2022-12-08T14:04:04.646Z,-9.01
2022-12-08T14:06:35.194Z,-9.05
2022-12-08T14:09:10.466Z,-9.20
2022-12-08T14:11:37.813Z,-9.30
2022-12-08T14:14:04.294Z,-9.29
2022-12-08T14:16:38.527Z,-9.16
2022-12-08T14:19:18.828Z,-9.05
2022-12-08T14:21:54.244Z,-9.02
2022-12-08T14:24:23.489Z,-9.11
2022-12-08T14:26:51.418Z,-9.02
2022-12-08T14:29:31.434Z,-8.99
2022-12-08T14:31:57.925Z,-9.62
2022-12-08T14:34:24.429Z,-9.80
2022-12-08T14:36:52.220Z,-9.49
2022-12-08T14:39:19.395Z,-9.47
2022-12-08T14:42:01.185Z,-9.19
2022-12-08T14:44:30.865Z,-9.07
2022-12-08T14:47:07.784Z,-9.01
2022-12-08T14:49:35.967Z,-8.92
2022-12-08T14:52:03.188Z,-8.74
2022-12-08T14:54:31.177Z,-8.70
2022-12-08T14:56:58.131Z,-9.27
2022-12-08T14:59:27.345Z,-9.68
2022-12-08T15:02:08.522Z,-9.84
2022-12-08T15:04:37.749Z,-9.64
2022-12-08T15:07:20.610Z,-9.34
2022-12-08T15:09:50.092Z,-9.55
2022-12-08T15:12:27.079Z,-10.22
2022-12-08T15:14:55.377Z,-10.36
2022-12-08T15:17:47.005Z,-10.03
2022-12-08T15:20:28.779Z,-9.78
2022-12-08T15:22:58.245Z,-10.15
2022-12-08T15:25:25.147Z,-10.58
2022-12-08T15:27:57.495Z,-10.79
2022-12-08T15:30:26.400Z,-10.71
2022-12-08T15:32:54.307Z,-10.39
2022-12-08T15:35:21.392Z,-10.26
2022-12-08T15:37:47.880Z,-10.35
2022-12-08T15:40:18.057Z,-10.00
2022-12-08T15:42:44.533Z,-9.80
2022-12-08T15:45:14.362Z,-9.89
2022-12-08T15:47:41.888Z,-10.49
2022-12-08T15:50:14.737Z,-10.45
2022-12-08T15:52:43.061Z,-10.54
2022-12-08T15:55:17.081Z,-10.74
2022-12-08T15:58:44.632Z,-10.90
2022-12-08T16:09:11.831Z,-11.28
2022-12-08T16:12:06.723Z,-10.94
2022-12-08T16:15:46.729Z,-10.58
2022-12-08T16:17:21.093Z,-10.64
2022-12-08T16:19:48.322Z,-11.02
2022-12-08T16:25:22.373Z,-11.18
2022-12-08T16:28:05.514Z,-11.01
2022-12-08T16:30:35.292Z,-10.75
2022-12-08T16:33:01.895Z,-10.88
2022-12-08T16:35:28.407Z,-11.13
2022-12-08T16:37:54.869Z,-10.84
2022-12-08T16:40:21.385Z,-10.58
2022-12-08T16:42:50.076Z,-10.69
2022-12-08T16:45:21.668Z,-10.84
2022-12-08T16:47:55.740Z,-10.66
2022-12-08T16:50:24.455Z,-10.29
2022-12-08T16:52:55.942Z,-10.21
2022-12-08T16:55:22.598Z,-10.51
2022-12-08T16:57:49.232Z,-10.55
2022-12-08T17:00:21.689Z,-10.36
2022-12-08T17:02:48.316Z,-10.11
2022-12-08T17:05:16.260Z,-10.01
2022-12-08T17:07:44.050Z,-9.78
2022-12-08T17:10:12.479Z,-9.95
2022-12-08T17:12:40.753Z,-9.73
2022-12-08T17:15:09.138Z,-9.70
2022-12-08T17:17:36.279Z,-10.39
2022-12-08T17:20:07.040Z,-11.07
2022-12-08T17:22:34.438Z,-11.13
2022-12-08T17:25:03.498Z,-10.61
2022-12-08T17:27:30.222Z,-10.29
2022-12-08T17:29:57.352Z,-10.05
2022-12-08T17:32:23.920Z,-9.88
2022-12-08T17:34:50.439Z,-9.58
2022-12-08T17:37:19.138Z,-9.44
2022-12-08T17:39:45.790Z,-9.51
2022-12-08T17:42:12.224Z,-9.64
2022-12-08T17:44:38.636Z,-9.62
2022-12-08T17:47:05.534Z,-9.45
2022-12-08T17:49:33.025Z,-9.36
2022-12-08T17:52:03.058Z,-9.42
2022-12-08T17:54:29.898Z,-9.65
2022-12-08T17:56:58.602Z,-9.97
2022-12-08T17:59:25.590Z,-10.02
2022-12-08T18:01:53.560Z,-10.23
2022-12-08T18:04:20.301Z,-10.44
2022-12-08T18:06:46.967Z,-10.54
2022-12-08T18:09:13.896Z,-10.56
2022-12-08T18:11:40.653Z,-10.56
2022-12-08T18:14:10.439Z,-10.39
2022-12-08T18:16:38.340Z,-10.37
2022-12-08T18:19:05.559Z,-10.68
2022-12-08T18:21:32.146Z,-10.84
2022-12-08T18:23:58.557Z,-10.90
2022-12-08T18:26:25.089Z,-10.80
2022-12-08T18:28:51.550Z,-10.59
2022-12-08T18:31:19.763Z,-10.28
2022-12-08T18:33:47.965Z,-10.39
2022-12-08T18:36:16.042Z,-10.19
2022-12-08T18:38:42.985Z,-10.17
2022-12-08T18:41:20.898Z,-9.91
2022-12-08T18:43:47.312Z,-9.69
2022-12-08T18:46:14.495Z,-9.61
2022-12-08T18:48:42.271Z,-9.70
2022-12-08T18:51:10.207Z,-9.82
2022-12-08T18:53:36.661Z,-9.81
2022-12-08T18:56:03.480Z,-9.66
2022-12-08T18:58:29.877Z,-9.52
2022-12-08T19:00:57.022Z,-9.53
2022-12-08T19:03:23.586Z,-9.58
2022-12-08T19:05:50.102Z,-9.53
2022-12-08T19:08:16.520Z,-9.49
2022-12-08T19:10:43.086Z,-9.26
2022-12-08T19:13:10.418Z,-9.36
2022-12-08T19:15:36.869Z,-9.54
2022-12-08T19:18:03.415Z,-9.68
2022-12-08T19:20:29.886Z,-9.76
2022-12-08T19:22:56.934Z,-9.85
2022-12-08T19:25:23.497Z,-9.93
2022-12-08T19:27:49.987Z,-9.95
2022-12-08T19:30:16.576Z,-9.97
2022-12-08T19:32:43.030Z,-9.90
2022-12-08T19:35:09.526Z,-9.79
2022-12-08T19:37:36.129Z,-9.76
2022-12-08T19:40:21.692Z,-9.61
2022-12-08T19:43:06.789Z,-9.57
2022-12-08T19:45:35.348Z,-9.70
2022-12-08T19:48:01.845Z,-9.80
2022-12-08T19:50:37.644Z,-9.59
2022-12-08T19:53:09.296Z,-9.44
2022-12-08T19:55:36.475Z,-9.54
2022-12-08T19:58:03.784Z,-9.52
2022-12-08T20:00:30.859Z,-9.32
2022-12-08T20:02:58.117Z,-9.33
2022-12-08T20:05:24.967Z,-9.34
2022-12-08T20:07:52.378Z,-9.32
2022-12-08T20:10:22.173Z,-9.32
2022-12-08T20:12:48.698Z,-9.20
2022-12-08T20:15:15.389Z,-9.19
2022-12-08T20:17:42.349Z,-9.35
2022-12-08T20:20:09.717Z,-9.59
2022-12-08T20:22:36.570Z,-9.79
2022-12-08T20:25:03.206Z,-9.94
2022-12-08T20:27:29.763Z,-10.01
2022-12-08T20:29:56.289Z,-10.04
2022-12-08T20:32:22.962Z,-10.04
2022-12-08T20:34:49.473Z,-10.01
2022-12-08T20:37:16.048Z,-10.08
2022-12-08T20:39:42.711Z,-10.13
2022-12-08T20:42:12.275Z,-10.14
2022-12-08T20:44:43.653Z,-10.09
2022-12-08T20:47:10.583Z,-10.01
2022-12-08T20:49:37.302Z,-9.95
2022-12-08T20:52:03.883Z,-9.92
2022-12-08T20:54:30.365Z,-9.92
2022-12-08T20:56:57.001Z,-9.99
2022-12-08T20:59:24.409Z,-10.00
2022-12-08T21:01:52.785Z,-9.92
2022-12-08T21:04:20.050Z,-9.93
2022-12-08T21:06:46.883Z,-9.97
2022-12-08T21:09:13.419Z,-9.94
2022-12-08T21:11:40.132Z,-9.99
2022-12-08T21:14:07.119Z,-10.09
2022-12-08T21:16:33.944Z,-10.12
2022-12-08T21:19:00.403Z,-10.13
2022-12-08T21:21:26.859Z,-10.16
2022-12-08T21:23:53.674Z,-10.05
2022-12-08T21:26:20.863Z,-9.83
2022-12-08T21:28:47.336Z,-9.63
2022-12-08T21:31:15.751Z,-9.40
2022-12-08T21:33:43.107Z,-9.43
2022-12-08T21:36:14.102Z,-9.45
2022-12-08T21:38:40.960Z,-9.35
2022-12-08T21:41:09.170Z,-9.42
2022-12-08T21:43:35.777Z,-9.37
2022-12-08T21:46:02.416Z,-9.29
2022-12-08T21:48:29.147Z,-9.16
2022-12-08T21:50:56.512Z,-9.18
2022-12-08T21:53:25.417Z,-9.18
2022-12-08T21:55:52.197Z,-9.13
2022-12-08T21:58:18.793Z,-9.03
2022-12-08T22:00:47.088Z,-8.92
2022-12-08T22:03:14.659Z,-8.83
2022-12-08T22:05:41.746Z,-8.61
2022-12-08T22:08:09.090Z,-8.65
2022-12-08T22:10:35.978Z,-8.73
2022-12-08T22:13:02.611Z,-8.63
2022-12-08T22:15:30.010Z,-8.56
2022-12-08T22:17:56.963Z,-8.78
2022-12-08T22:20:23.745Z,-9.21
2022-12-08T22:22:50.381Z,-9.56
2022-12-08T22:25:16.923Z,-9.86
2022-12-08T22:27:43.600Z,-9.67
2022-12-08T22:30:11.053Z,-9.76
2022-12-08T22:32:39.256Z,-9.57
2022-12-08T22:35:05.978Z,-9.52
2022-12-08T22:37:32.701Z,-9.30
2022-12-08T22:39:59.198Z,-9.43
2022-12-08T22:42:26.528Z,-9.85
2022-12-08T22:44:53.050Z,-9.85
2022-12-08T22:47:19.660Z,-9.78
2022-12-08T22:49:46.306Z,-9.69
2022-12-08T22:52:12.977Z,-9.77
2022-12-08T22:54:39.531Z,-9.74
2022-12-08T22:57:06.166Z,-9.60
2022-12-08T22:59:35.376Z,-9.95
2022-12-08T23:02:02.835Z,-10.05
2022-12-08T23:04:29.477Z,-10.00
2022-12-08T23:06:56.319Z,-9.76
2022-12-08T23:09:23.990Z,-9.89
2022-12-08T23:11:50.631Z,-9.94
2022-12-08T23:14:17.770Z,-9.87
2022-12-08T23:16:44.605Z,-9.61
2022-12-08T23:19:11.890Z,-9.52
2022-12-08T23:21:38.647Z,-9.52
2022-12-08T23:24:05.709Z,-9.35
2022-12-08T23:26:33.102Z,-9.20
2022-12-08T23:28:59.708Z,-9.06
2022-12-08T23:31:26.481Z,-8.99
2022-12-08T23:33:53.650Z,-8.92
2022-12-08T23:36:20.976Z,-9.02
2022-12-08T23:38:48.023Z,-9.32
2022-12-08T23:41:15.241Z,-9.48
2022-12-08T23:43:46.742Z,-9.70
2022-12-08T23:46:14.456Z,-9.44
2022-12-08T23:48:41.105Z,-9.66
2022-12-08T23:51:07.783Z,-9.47
2022-12-08T23:53:34.639Z,-9.24
2022-12-08T23:56:02.420Z,-9.05
2022-12-08T23:58:30.377Z,-9.25
